Terminal Aerodrome Forecast
Issued by NWS Albany, NY

Home | Current Version | Previous Version | Text Only | Print | Product List | Glossary On
Versions: 1 2 3 4 5 6 7 8 9 10 11 12 13 14 15 16 17 18 19 20 21 22 23 24 25 26 27 28 29 30 31 32 33
000
FTUS41 KALY 222300
TAFPOU
TAF
KPOU 222320Z 2300/2324 34004KT P6SM SCT012 OVC024
      TEMPO 2301/2303 4SM -RADZ BR BKN012 OVC020
     FM230300 00000KT 4SM -RA BR OVC015
      TEMPO 2304/2306 2SM -RA BR OVC007
     FM230600 00000KT 2SM -RA BR OVC007
     FM231500 00000KT 5SM -DZ BR OVC008=

USA.gov is the U.S. government's official web portal to all federal, state and local government web resources and services.